首页
METAR-TAF:

METAR-TAF

机场 :

Orangeburg Municipal Airport

Orangeburg, 南卡罗来纳州, 美国

纬度: 33-27-50N, 经度: 080-51-13W, 海拔: 60米

当前天气观测

该预报发布于21分钟前的09:53 UTC
风速3节,风向南转西南
温度 21°C
湿度 100%
气压 1019 hPa
能見度: 9.7公里
天空无云
轻雾

METAR: KOGB 260953Z AUTO 20003KT 6SM BR CLR 21/21 A3010 RMK AO2 SLP190 T02110206

时间: 06:14 (10:14 UTC)

预报

该预报发布于1小时和28分钟前的08:46 UTC
预报有效从26日的 09点(UTC)到 27日的 06点(UTC)
风速3节,风向多变
能見度: 10公里
天空无云
短暂存在
从 26日的 10点(UTC)到 26日的 12点(UTC)
能見度: 8.0公里
轻雾
从 26日的 1500点(UTC)
风速10节,风向西转西北
能見度: 10公里
散云层高于6000英尺
从 27日的 0000点(UTC)
风速3节,风向多变
能見度: 10公里
少量云层高于25000英尺

TAF: KOGB 260846Z 2609/2706 VRB03KT P6SM SKC TEMPO 2610/2612 5SM BR FM261500 29010KT P6SM SCT060 FM270000 VRB03KT P6SM FEW250

超过4000个机场的气象观测和天气预报(METAR&TAF报告)。

可查询的气象台以黄色和红色小点在地图上表示。

将鼠标移到小点上方,可查看气象台名称。

然后点击查看天气观测和预报。

如需切换地图:点击带黑十字的绿色按钮放大地图;点击带横线的绿色按钮缩小地图;或者点击绿色箭头查看邻近地区的地图。


METAR-TAF: